Time;durP1;ratioP1;P1;durP2;ratioP2;P2;SDS_P1;SDS_P2;PMS_P1;PMS_P2;Temp;Humidity;BMP_temperature;BMP_pressure;BME280_temperature;BME280_humidity;BME280_pressure;Samples;Min_cycle;Max_cycle;Signal;HPM_P1;HPM_P2
2022/01/18 00:01:00;;;;;;;24.13;8.57;;;;;;;6.02;86.08;102677.31;4975403;28;20105;-82
2022/01/18 00:04:05;;;;;;;25.83;8.43;;;;;;;5.85;87.25;102676.41;4966558;28;20048;-82
2022/01/18 00:07:09;;;;;;;28.38;8.48;;;;;;;6.02;86.68;102679.91;4978372;28;20119;-82
2022/01/18 00:10:13;;;;;;;;;;;;;;;6.14;86.27;102692.03;4978220;28;20057;-82
2022/01/18 00:16:49;;;;;;;21.52;8.40;;;;;;;6.26;85.88;102690.31;4966891;28;20045;-82
2022/01/18 00:19:55;;;;;;;19.40;6.95;;;;;;;6.25;85.79;102695.50;4987115;28;20100;-82
2022/01/18 00:22:59;;;;;;;24.50;6.93;;;;;;;6.26;85.81;102698.13;4977700;28;20105;-82
2022/01/18 00:26:07;;;;;;;23.70;6.68;;;;;;;6.32;85.50;102697.25;4988951;28;20045;-82
2022/01/18 00:29:14;;;;;;;27.08;8.57;;;;;;;6.11;86.64;102705.03;4978048;28;21087;-82
2022/01/18 00:32:36;;;;;;;32.13;11.13;;;;;;;6.00;87.70;102715.41;4989806;28;20125;-82
2022/01/18 00:35:42;;;;;;;18.95;8.52;;;;;;;6.02;87.40;102708.47;4976159;28;20744;-82
2022/01/18 00:38:47;;;;;;;26.73;7.18;;;;;;;5.72;89.32;102719.63;4989444;28;20563;-81
2022/01/18 00:41:52;;;;;;;30.83;13.23;;;;;;;5.65;89.84;102718.75;4974340;28;20189;-82
2022/01/18 00:44:55;;;;;;;24.67;9.43;;;;;;;5.55;90.92;102732.53;4966175;28;20093;-82
2022/01/18 00:48:00;;;;;;;36.15;12.77;;;;;;;5.72;90.18;102730.00;4977145;28;20109;-82
2022/01/18 00:51:09;;;;;;;33.60;10.95;;;;;;;5.74;90.62;102743.84;4978022;28;20515;-82
2022/01/18 00:54:21;;;;;;;33.15;11.65;;;;;;;5.76;90.38;102736.94;4989104;28;20401;-82
2022/01/18 00:57:24;;;;;;;23.20;8.20;;;;;;;5.80;89.92;102731.75;4977430;28;20053;-82
2022/01/18 01:00:28;;;;;;;40.95;15.68;;;;;;;5.76;89.94;102736.94;4976491;28;20092;-82
2022/01/18 01:03:32;;;;;;;43.45;21.23;;;;;;;5.71;90.75;102749.91;4979811;28;20049;-82
2022/01/18 01:06:36;;;;;;;31.23;14.48;;;;;;;5.90;90.63;102750.81;4965377;28;20077;-82
2022/01/18 01:09:40;;;;;;;59.92;31.33;;;;;;;5.86;90.76;102748.22;4945988;28;20127;-82
2022/01/18 01:12:43;;;;;;;33.65;19.27;;;;;;;6.04;89.85;102758.69;4946274;28;20057;-82
2022/01/18 01:36:20;;;;;;;21.27;8.02;;;;;;;6.01;88.60;102758.69;4986002;28;20037;-82
2022/01/18 01:45:37;;;;;;;;;;;;;;;5.73;89.66;102744.72;4989140;28;20564;-82
2022/01/18 01:48:44;;;;;;;23.00;7.50;;;;;;;5.87;89.14;102744.75;4988522;28;19921;-82
2022/01/18 01:51:48;;;;;;;24.75;7.50;;;;;;;5.76;89.45;102748.19;4988706;28;20108;-82
2022/01/18 01:54:56;;;;;;;20.65;6.97;;;;;;;5.76;90.34;102742.13;4957498;28;20660;-82
2022/01/18 01:57:59;;;;;;;21.13;6.28;;;;;;;5.85;89.33;102741.31;4957220;28;20094;-82
2022/01/18 02:01:06;;;;;;;20.20;7.00;;;;;;;5.93;88.97;102734.41;4965051;28;20037;-82
2022/01/18 02:04:10;;;;;;;22.58;6.88;;;;;;;5.93;88.51;102744.81;4955054;28;20518;-82
2022/01/18 02:07:14;;;;;;;21.35;6.90;;;;;;;5.78;89.42;102743.88;4968613;28;20057;-82
2022/01/18 02:10:17;;;;;;;17.35;6.70;;;;;;;5.86;88.78;102750.81;4956675;28;20049;-82
2022/01/18 02:13:21;;;;;;;14.80;6.32;;;;;;;5.83;88.34;102757.72;4946395;28;20111;-82
2022/01/18 02:23:09;;;;;;;15.60;7.80;;;;;;;5.83;89.06;102749.94;4976141;28;20096;-82
2022/01/18 02:26:13;;;;;;;22.48;9.02;;;;;;;5.86;88.69;102753.41;4987982;28;20280;-82
2022/01/18 02:29:17;;;;;;;26.60;12.63;;;;;;;5.74;89.62;102755.13;4975894;28;20053;-82
2022/01/18 02:32:22;;;;;;;19.63;10.68;;;;;;;5.84;88.70;102750.81;4964768;28;20120;-82
2022/01/18 02:35:27;;;;;;;24.25;11.32;;;;;;;5.93;88.48;102750.00;4981889;28;20053;-82
2022/01/18 02:38:31;;;;;;;26.10;12.80;;;;;;;5.90;88.76;102760.34;4965227;28;20048;-82
2022/01/18 02:41:36;;;;;;;20.15;8.45;;;;;;;5.87;88.55;102766.41;4954744;28;20453;-81
2022/01/18 02:44:41;;;;;;;19.58;7.45;;;;;;;5.94;88.33;102767.34;4975803;28;20551;-82
2022/01/18 02:47:46;;;;;;;17.42;7.65;;;;;;;5.94;88.25;102767.34;4974892;28;20050;-82
2022/01/18 02:50:52;;;;;;;21.35;7.68;;;;;;;5.93;87.73;102761.25;4954737;28;20085;-82
2022/01/18 02:54:10;;;;;;;20.05;7.85;;;;;;;5.96;87.66;102761.25;4953510;28;20053;-82
2022/01/18 02:57:26;;;;;;;19.40;6.18;;;;;;;5.96;87.77;102756.06;4978099;28;20049;-82
2022/01/18 03:00:44;;;;;;;21.85;7.75;;;;;;;5.81;88.08;102749.09;4968384;28;20512;-82
2022/01/18 03:03:48;;;;;;;19.40;7.85;;;;;;;5.81;88.37;102746.47;4993779;28;20049;-82
2022/01/18 03:06:53;;;;;;;;;;;;;;;5.74;88.12;102749.94;4980201;28;20128;-82
2022/01/18 03:10:01;;;;;;;15.88;7.63;;;;;;;5.69;88.59;102756.81;4991559;28;19920;-82
2022/01/18 03:13:05;;;;;;;20.35;7.95;;;;;;;5.54;89.65;102751.56;4992050;28;20057;-82
2022/01/18 03:16:08;;;;;;;20.30;8.80;;;;;;;5.69;88.78;102750.78;4967736;28;20128;-82
2022/01/18 03:19:12;;;;;;;;;;;;;;;5.69;88.69;102754.22;4960097;28;20042;-82
2022/01/18 03:22:16;;;;;;;12.75;5.97;;;;;;;5.70;88.37;102750.75;4969252;28;20376;-82
2022/01/18 03:29:06;;;;;;;19.17;7.28;;;;;;;5.82;88.00;102745.63;4989496;28;20069;-81
2022/01/18 03:32:09;;;;;;;;;;;;;;;5.86;88.12;102740.44;4970252;28;20041;-81
2022/01/18 03:35:13;;;;;;;21.70;8.85;;;;;;;5.82;87.91;102743.03;4978529;28;19921;-82
2022/01/18 03:38:18;;;;;;;13.68;6.50;;;;;;;5.78;88.18;102733.50;4967272;28;20057;-82
2022/01/18 03:41:22;;;;;;;28.20;13.48;;;;;;;5.70;88.34;102732.59;4979462;28;20512;-82
2022/01/18 03:44:31;;;;;;;19.15;9.43;;;;;;;5.71;88.87;102743.84;4278067;28;10021553;-82
2022/01/18 03:47:42;;;;;;;22.25;8.02;;;;;;;5.70;88.34;102742.09;4988302;28;20428;-82
2022/01/18 03:50:46;;;;;;;20.40;7.72;;;;;;;5.54;88.64;102738.59;4964804;28;20141;-82
2022/01/18 03:53:51;;;;;;;;;;;;;;;5.58;88.73;102740.31;4988343;28;20049;-82
2022/01/18 03:56:55;;;;;;;18.50;6.43;;;;;;;5.62;88.60;102751.63;4987113;28;19972;-82
2022/01/18 03:59:59;;;;;;;11.82;6.32;;;;;;;5.54;88.01;102752.44;4974670;28;20057;-82
2022/01/18 04:03:02;;;;;;;;;;;;;;;5.57;87.97;102760.22;4987694;28;20425;-82
2022/01/18 04:06:08;;;;;;;19.38;5.70;;;;;;;5.55;87.80;102759.38;4987329;28;20004;-82
2022/01/18 04:09:11;;;;;;;;;;;;;;;5.57;88.10;102756.78;4975612;28;20049;-82
2022/01/18 04:12:15;;;;;;;32.70;16.33;;;;;;;5.40;89.34;102753.25;4975406;28;19972;-82
2022/01/18 04:15:18;;;;;;;23.98;11.70;;;;;;;5.47;88.92;102761.06;4973757;28;20210;-82
2022/01/18 04:18:31;;;;;;;;;;;;;;;5.62;88.29;102760.25;4987516;28;20320;-82
2022/01/18 04:31:29;;;;;;;17.80;6.80;;;;;;;5.69;87.67;102756.81;4974172;28;20148;-82
2022/01/18 04:34:33;;;;;;;19.48;7.20;;;;;;;5.65;87.93;102757.69;4996308;28;20583;-82
2022/01/18 04:37:36;;;;;;;;;;;;;;;5.69;87.86;102762.00;4997426;28;20048;-82
2022/01/18 04:40:44;;;;;;;15.18;6.57;;;;;;;5.69;87.91;102756.81;4964167;28;19971;-82
2022/01/18 04:50:15;;;;;;;15.10;6.95;;;;;;;5.61;87.80;102753.31;4966927;28;20130;-81
2022/01/18 04:53:19;;;;;;;19.67;6.43;;;;;;;5.52;87.56;102768.84;4955197;28;20830;-82
2022/01/18 04:59:38;;;;;;;14.27;6.13;;;;;;;5.53;87.84;102775.78;4974036;28;20117;-82
2022/01/18 05:02:42;;;;;;;18.35;6.82;;;;;;;5.32;88.71;102777.41;4974568;28;20163;-82
2022/01/18 05:05:48;;;;;;;18.35;6.90;;;;;;;5.32;88.50;102777.41;4963575;28;20221;-82
2022/01/18 05:08:52;;;;;;;23.55;10.52;;;;;;;5.29;89.04;102781.69;4985693;28;20057;-82
2022/01/18 05:12:06;;;;;;;22.33;9.77;;;;;;;5.42;88.59;102782.63;4973337;28;20185;-84
2022/01/18 05:25:40;;;;;;;19.73;6.13;;;;;;;5.56;87.77;102783.59;4976395;28;20472;-83
2022/01/18 05:28:44;;;;;;;14.98;6.63;;;;;;;5.45;87.78;102787.84;4989110;28;20180;-83
2022/01/18 05:32:01;;;;;;;12.75;5.97;;;;;;;5.49;87.77;102792.22;4973768;28;20045;-82
2022/01/18 05:35:09;;;;;;;22.33;8.05;;;;;;;5.59;87.78;102786.19;4977461;28;20152;-82
2022/01/18 05:38:13;;;;;;;16.70;8.93;;;;;;;5.51;87.54;102788.75;4962969;28;20165;-82
2022/01/18 05:41:19;;;;;;;14.70;5.80;;;;;;;5.47;87.47;102788.72;4983773;28;20057;-82
2022/01/18 05:44:49;;;;;;;12.80;6.60;;;;;;;5.44;87.70;102796.50;4975983;28;20141;-82
2022/01/18 05:48:06;;;;;;;22.77;7.17;;;;;;;5.31;88.68;102796.41;4998819;28;20081;-82
2022/01/18 05:51:15;;;;;;;14.27;7.47;;;;;;;5.27;88.82;102805.06;4988948;28;20324;-82
2022/01/18 05:54:19;;;;;;;23.42;7.47;;;;;;;5.37;88.90;102805.97;4986247;28;20109;-81
2022/01/18 05:57:25;;;;;;;18.17;6.28;;;;;;;5.34;88.47;102806.81;4948644;28;20505;-82
2022/01/18 06:00:31;;;;;;;15.15;5.43;;;;;;;5.32;88.30;102807.66;4973306;28;20118;-81
2022/01/18 06:07:06;;;;;;;18.20;6.72;;;;;;;5.46;88.22;102816.41;4988808;28;20393;-81
2022/01/18 06:10:11;;;;;;;22.52;8.15;;;;;;;5.40;88.15;102815.50;4975860;28;20104;-81
2022/01/18 06:13:18;;;;;;;15.68;7.03;;;;;;;5.47;87.93;102819.88;4965443;28;20058;-81
2022/01/18 06:16:32;;;;;;;17.38;7.00;;;;;;;5.47;87.82;102827.66;4964652;28;20050;-81
2022/01/18 06:19:37;;;;;;;16.63;7.95;;;;;;;5.49;87.62;102831.13;4988538;28;20049;-81
2022/01/18 06:22:45;;;;;;;21.10;8.00;;;;;;;5.17;89.04;102825.72;4975410;28;20204;-81
2022/01/18 06:25:53;;;;;;;24.45;10.25;;;;;;;5.11;89.41;102826.56;4975577;28;20109;-81
2022/01/18 06:29:02;;;;;;;28.95;11.63;;;;;;;4.98;90.71;102837.66;4988226;28;20048;-81
2022/01/18 06:32:13;;;;;;;20.00;9.65;;;;;;;5.19;89.48;102837.84;4977496;28;20107;-81
2022/01/18 06:35:20;;;;;;;21.88;8.68;;;;;;;5.23;89.40;102836.13;4979760;28;20045;-81
2022/01/18 06:38:25;;;;;;;20.15;9.32;;;;;;;5.18;89.71;102830.06;4974352;28;20145;-81
2022/01/18 06:41:29;;;;;;;24.20;10.95;;;;;;;5.33;89.21;102831.03;4969512;28;20092;-81
2022/01/18 06:44:34;;;;;;;21.75;10.88;;;;;;;5.41;88.65;102832.81;4992549;28;20126;-82
2022/01/18 06:47:39;;;;;;;;;;;;;;;5.44;88.21;102838.88;4992378;28;20515;-81
2022/01/18 06:50:50;;;;;;;22.75;8.48;;;;;;;5.35;88.68;102844.00;5002594;28;19960;-81
2022/01/18 06:53:59;;;;;;;19.13;9.50;;;;;;;5.35;88.97;102847.47;4979810;28;20136;-82
2022/01/18 06:57:06;;;;;;;19.45;8.48;;;;;;;5.38;88.58;102849.22;4979173;28;20052;-81
2022/01/18 07:00:10;;;;;;;17.40;8.05;;;;;;;5.44;88.32;102853.59;4990132;28;20044;-82
2022/01/18 07:03:15;;;;;;;25.63;9.02;;;;;;;5.40;88.41;102868.25;4991447;28;20053;-82
2022/01/18 07:06:21;;;;;;;21.27;9.13;;;;;;;5.37;88.19;102860.47;4980203;28;20037;-82
2022/01/18 07:09:32;;;;;;;21.35;8.50;;;;;;;5.41;88.20;102870.00;4968827;28;20073;-81
2022/01/18 07:12:36;;;;;;;16.52;8.20;;;;;;;5.41;88.16;102869.13;4989494;28;20122;-81
2022/01/18 07:15:41;;;;;;;21.67;8.98;;;;;;;5.43;88.12;102873.47;4960080;28;20050;-82
2022/01/18 07:18:47;;;;;;;22.98;8.02;;;;;;;5.29;88.62;102870.75;4971019;28;20533;-81
2022/01/18 07:21:53;;;;;;;26.30;12.98;;;;;;;5.39;88.12;102866.50;4970555;28;20178;-81
2022/01/18 07:25:02;;;;;;;29.10;15.82;;;;;;;5.46;88.02;102872.63;4951772;29;20406;-81
2022/01/18 07:28:06;;;;;;;27.60;12.65;;;;;;;5.53;87.81;102864.88;4941241;29;20133;-81
2022/01/18 07:31:11;;;;;;;20.10;11.23;;;;;;;5.56;87.82;102864.03;4953736;29;20054;-81
2022/01/18 07:34:16;;;;;;;20.52;9.68;;;;;;;5.56;87.88;102869.22;4954593;28;20057;-81
2022/01/18 07:37:21;;;;;;;24.90;10.50;;;;;;;5.53;87.75;102877.00;4959074;28;20510;-80
2022/01/18 07:40:28;;;;;;;21.95;9.32;;;;;;;5.59;87.91;102875.31;4972644;28;20508;-81
2022/01/18 07:43:31;;;;;;;17.42;8.32;;;;;;;5.49;87.75;102877.84;4971890;28;20053;-81
2022/01/18 07:46:35;;;;;;;16.95;8.50;;;;;;;5.42;87.93;102878.63;4973743;28;20100;-80
2022/01/18 07:49:38;;;;;;;18.80;7.75;;;;;;;5.39;88.27;102881.22;4959983;28;20113;-81
2022/01/18 07:52:42;;;;;;;19.35;7.75;;;;;;;5.36;88.62;102885.53;4959758;28;20054;-81
2022/01/18 07:55:47;;;;;;;16.42;7.18;;;;;;;5.42;88.33;102882.09;4960014;28;20038;-81
2022/01/18 07:58:50;;;;;;;17.20;8.38;;;;;;;5.41;88.37;102884.69;4971880;28;20409;-81
2022/01/18 08:01:55;;;;;;;20.27;8.05;;;;;;;5.48;88.24;102882.13;4950660;28;20097;-81
2022/01/18 08:04:58;;;;;;;17.48;8.55;;;;;;;5.51;87.98;102883.91;4971330;28;20684;-81
2022/01/18 08:08:02;;;;;;;16.85;6.82;;;;;;;5.53;88.27;102892.56;4972999;28;20501;-80
2022/01/18 08:11:07;;;;;;;22.52;8.63;;;;;;;5.58;88.12;102894.34;4960267;28;20458;-80
2022/01/18 08:14:13;;;;;;;19.40;8.10;;;;;;;5.64;87.70;102903.00;4971962;28;20098;-81
2022/01/18 08:17:17;;;;;;;17.83;9.45;;;;;;;5.53;88.53;102902.94;4972125;28;20119;-81
2022/01/18 08:20:22;;;;;;;25.77;16.23;;;;;;;5.41;88.77;102905.44;4971825;28;20052;-81
2022/01/18 08:23:26;;;;;;;20.88;10.80;;;;;;;5.38;89.11;102906.28;4971825;28;20058;-81
2022/01/18 08:26:29;;;;;;;19.00;8.90;;;;;;;5.47;88.80;102902.91;4960243;28;20049;-81
2022/01/18 08:29:33;;;;;;;19.98;8.05;;;;;;;5.50;88.88;102908.97;4959694;28;20081;-81
2022/01/18 08:32:38;;;;;;;22.48;9.13;;;;;;;5.54;88.50;102907.28;4970708;28;20085;-81
2022/01/18 08:35:42;;;;;;;18.58;9.50;;;;;;;5.60;88.64;102902.13;4971804;28;20529;-81
2022/01/18 08:38:46;;;;;;;26.50;12.68;;;;;;;5.69;88.17;102897.00;4969175;28;20053;-81
2022/01/18 08:41:50;;;;;;;28.23;18.40;;;;;;;5.69;88.07;102902.19;4973161;28;20053;-81
2022/01/18 08:44:55;;;;;;;24.90;12.48;;;;;;;5.71;87.83;102903.06;4959991;28;20295;-81
2022/01/18 08:47:58;;;;;;;19.60;12.27;;;;;;;5.69;88.10;102909.09;4969984;28;20054;-80
2022/01/18 08:51:03;;;;;;;23.98;8.82;;;;;;;5.73;87.89;102903.06;4935674;28;20113;-82
2022/01/18 08:54:07;;;;;;;23.52;9.10;;;;;;;5.75;88.03;102901.34;4949704;28;20122;-83
2022/01/18 08:57:12;;;;;;;30.25;11.15;;;;;;;5.81;87.69;102899.66;4950726;29;20415;-85
2022/01/18 09:00:17;;;;;;;20.40;11.05;;;;;;;5.73;88.24;102898.75;4943429;28;20128;-87
2022/01/18 09:03:24;;;;;;;40.40;17.90;;;;;;;5.60;89.61;102892.59;4970012;28;20118;-86
2022/01/18 09:06:29;;;;;;;27.65;11.35;;;;;;;5.76;89.01;102898.75;4958684;28;20053;-86
2022/01/18 09:09:33;;;;;;;27.58;11.60;;;;;;;5.82;88.38;102895.34;4969552;28;20045;-87
2022/01/18 09:12:37;;;;;;;23.08;8.73;;;;;;;5.59;89.17;102900.41;4957587;28;20050;-84
2022/01/18 09:15:43;;;;;;;17.80;8.80;;;;;;;5.66;88.96;102901.31;4970730;28;20038;-84
2022/01/18 09:18:47;;;;;;;24.73;8.73;;;;;;;5.68;89.09;102903.06;4971708;28;20566;-84
2022/01/18 09:21:51;;;;;;;20.55;9.65;;;;;;;5.76;88.78;102916.94;4947391;28;20572;-84
2022/01/18 09:24:54;;;;;;;20.13;9.40;;;;;;;5.75;89.22;102912.59;4959984;28;20061;-86
2022/01/18 09:27:58;;;;;;;23.98;9.32;;;;;;;5.86;89.37;102916.97;4949272;28;20765;-85
2022/01/18 09:31:02;;;;;;;24.30;7.65;;;;;;;6.11;88.24;102918.00;4958367;28;20512;-81
2022/01/18 09:34:06;;;;;;;19.38;7.55;;;;;;;6.27;87.16;102919.81;4958380;28;20094;-81
2022/01/18 09:37:09;;;;;;;22.23;7.93;;;;;;;6.36;86.84;102921.59;4970589;28;20057;-81
2022/01/18 09:40:16;;;;;;;;;;;;;;;6.40;86.74;102921.59;4972144;28;20141;-80
2022/01/18 09:43:20;;;;;;;19.40;8.38;;;;;;;6.49;86.36;102928.56;4958612;28;19960;-81
2022/01/18 09:46:25;;;;;;;16.95;9.52;;;;;;;6.39;86.56;102926.81;4971442;28;20149;-81
2022/01/18 09:49:29;;;;;;;19.13;8.85;;;;;;;6.44;86.63;102936.31;4948317;28;20045;-81
2022/01/18 09:52:33;;;;;;;14.60;7.47;;;;;;;6.56;86.59;102938.09;4958101;28;20101;-84
2022/01/18 09:55:37;;;;;;;16.55;7.75;;;;;;;6.63;86.63;102934.66;4971484;28;20111;-85
2022/01/18 09:58:41;;;;;;;18.27;8.43;;;;;;;6.73;85.91;102936.44;4958826;28;20054;-81
2022/01/18 10:01:44;;;;;;;22.90;9.43;;;;;;;6.45;87.11;102937.22;4959405;28;20042;-79
2022/01/18 10:04:49;;;;;;;19.88;9.07;;;;;;;6.31;86.92;102938.88;4947645;28;20050;-80
2022/01/18 10:08:00;;;;;;;19.40;8.52;;;;;;;6.57;86.66;102942.44;4948021;28;20469;-81
2022/01/18 10:11:10;;;;;;;19.63;8.30;;;;;;;6.70;85.78;102930.34;4959627;28;20058;-81
2022/01/18 10:14:20;;;;;;;26.10;8.98;;;;;;;6.56;86.58;102932.91;4947157;28;20513;-81
2022/01/18 10:17:33;;;;;;;20.48;9.65;;;;;;;6.68;86.83;102927.75;4970482;28;20065;-81
2022/01/18 10:20:52;;;;;;;25.02;11.23;;;;;;;6.72;85.97;102918.22;4958444;28;20108;-81
2022/01/18 10:24:15;;;;;;;32.13;14.27;;;;;;;6.62;85.92;102914.72;4963532;28;20054;-81
2022/01/18 10:27:19;;;;;;;33.50;13.17;;;;;;;6.64;85.54;102914.75;4970935;28;20061;-81
2022/01/18 10:30:45;;;;;;;27.20;13.80;;;;;;;6.67;85.55;102915.63;4970899;28;20361;-81
2022/01/18 10:34:08;;;;;;;26.25;12.50;;;;;;;6.71;84.58;102908.69;4957836;28;20552;-81
2022/01/18 10:37:20;;;;;;;26.98;11.63;;;;;;;6.87;84.84;102914.78;4965035;28;20148;-82
2022/01/18 10:40:26;;;;;;;123.68;61.85;;;;;;;6.82;84.29;102913.91;4936452;28;20109;-82
2022/01/18 10:43:33;;;;;;;88.68;49.78;;;;;;;6.63;83.87;102913.84;4947102;28;20122;-81
2022/01/18 10:46:46;;;;;;;43.90;23.73;;;;;;;6.87;83.51;102906.97;4969920;28;20100;-82
2022/01/18 10:49:50;;;;;;;26.60;14.15;;;;;;;6.90;83.06;102899.19;4958945;28;20517;-81
2022/01/18 10:53:09;;;;;;;30.42;17.50;;;;;;;7.00;82.88;102908.72;4950272;29;20058;-81
2022/01/18 10:56:15;;;;;;;26.50;13.70;;;;;;;7.21;82.20;102892.22;4967417;28;20504;-81
2022/01/18 10:59:24;;;;;;;23.10;9.80;;;;;;;7.32;81.81;102893.09;4970183;28;20053;-81
2022/01/18 11:02:32;;;;;;;23.83;9.27;;;;;;;7.34;81.48;102895.69;4958234;28;20049;-81
2022/01/18 11:05:41;;;;;;;20.60;6.57;;;;;;;7.33;80.18;102888.75;4957766;28;20046;-81
2022/01/18 11:08:51;;;;;;;16.55;6.72;;;;;;;7.46;80.25;102887.88;4958213;28;20057;-81
2022/01/18 11:11:57;;;;;;;24.95;9.25;;;;;;;7.23;80.42;102886.16;4958433;28;20689;-82
2022/01/18 11:15:05;;;;;;;17.45;7.40;;;;;;;7.27;81.04;102878.34;4968234;28;20054;-82
2022/01/18 11:18:16;;;;;;;22.33;8.88;;;;;;;7.38;80.28;102872.28;4958815;28;20089;-82
2022/01/18 11:21:23;;;;;;;18.05;8.35;;;;;;;7.40;81.16;102861.84;4972852;28;20065;-82
2022/01/18 11:24:28;;;;;;;17.63;6.57;;;;;;;7.44;80.93;102874.00;4960549;28;20053;-82
2022/01/18 11:27:35;;;;;;;13.65;6.45;;;;;;;7.38;81.00;102867.06;4972565;28;20058;-82
2022/01/18 11:30:41;;;;;;;13.48;5.65;;;;;;;7.42;80.94;102858.38;4972954;28;20141;-82
2022/01/18 11:33:54;;;;;;;13.63;6.35;;;;;;;7.36;80.87;102853.19;4959035;28;20050;-82
2022/01/18 11:37:16;;;;;;;15.85;6.28;;;;;;;7.42;80.12;102854.91;4941874;29;20095;-82
2022/01/18 11:40:24;;;;;;;14.32;5.30;;;;;;;7.51;79.24;102856.66;4953931;29;20106;-82
2022/01/18 11:43:39;;;;;;;17.83;6.05;;;;;;;7.48;78.90;102852.31;4967952;28;20073;-82
2022/01/18 11:46:52;;;;;;;15.68;6.97;;;;;;;6.96;81.35;102860.19;4955297;28;20106;-81
2022/01/18 11:49:57;;;;;;;11.45;5.38;;;;;;;7.20;80.94;102859.28;4942676;28;20086;-82
2022/01/18 11:53:39;;;;;;;15.60;7.38;;;;;;;7.45;80.57;102847.09;4971087;28;20114;-82
2022/01/18 11:56:43;;;;;;;12.77;5.07;;;;;;;7.58;79.25;102854.00;4956451;28;20141;-82
2022/01/18 11:59:52;;;;;;;10.73;4.72;;;;;;;7.53;79.35;102853.19;4949860;28;20101;-81
2022/01/18 12:03:15;;;;;;;12.70;4.55;;;;;;;7.55;79.00;102847.94;4949836;28;20049;-82
2022/01/18 12:06:46;;;;;;;12.45;4.80;;;;;;;7.61;79.39;102848.78;4971947;28;20112;-82
2022/01/18 12:09:50;;;;;;;13.82;4.10;;;;;;;7.62;78.80;102844.44;4972850;28;20097;-82
2022/01/18 12:12:56;;;;;;;11.80;3.80;;;;;;;7.70;77.36;102827.06;4961160;28;20056;-82
2022/01/18 12:16:03;;;;;;;12.43;3.95;;;;;;;7.58;77.83;102830.56;4972484;28;20081;-82
2022/01/18 12:19:08;;;;;;;12.02;3.63;;;;;;;7.66;77.56;102825.38;4972945;28;20054;-83
2022/01/18 12:22:12;;;;;;;11.80;3.50;;;;;;;7.56;76.93;102823.63;4971271;28;20046;-82
2022/01/18 12:25:31;;;;;;;14.40;4.50;;;;;;;7.66;77.41;102823.63;4972241;28;20045;-82
2022/01/18 12:35:17;;;;;;;8.63;3.40;;;;;;;7.51;77.63;102815.84;4971757;28;20085;-83
2022/01/18 12:38:24;;;;;;;8.07;2.65;;;;;;;7.57;77.45;102810.63;4959365;28;20050;-83
2022/01/18 12:41:46;;;;;;;9.50;2.75;;;;;;;7.60;76.81;102810.63;4972173;28;20077;-83
2022/01/18 12:44:49;;;;;;;5.40;2.35;;;;;;;7.60;77.31;102809.75;4971819;28;20042;-83
2022/01/18 12:48:03;;;;;;;6.22;2.20;;;;;;;7.66;77.01;102810.59;4970015;28;20089;-83
2022/01/18 12:51:08;;;;;;;8.18;2.42;;;;;;;7.66;76.69;102809.75;4958192;28;20137;-82
2022/01/18 12:54:12;;;;;;;8.48;2.30;;;;;;;7.62;76.73;102808.84;4948014;28;20509;-82
2022/01/18 12:57:16;;;;;;;;;;;;;;;7.65;76.18;102803.66;4971033;28;20096;-82
2022/01/18 13:00:20;;;;;;;5.88;2.13;;;;;;;7.48;75.75;102799.38;4928043;29;19970;-82
2022/01/18 13:03:37;;;;;;;8.00;2.92;;;;;;;7.61;76.19;102803.66;4932470;28;20066;-82
2022/01/18 13:06:41;;;;;;;6.97;2.20;;;;;;;7.66;76.57;102802.78;4970519;28;20279;-82
2022/01/18 13:09:59;;;;;;;7.30;2.50;;;;;;;7.69;75.39;102800.19;4957862;28;20068;-82
2022/01/18 13:13:03;;;;;;;6.28;2.20;;;;;;;7.74;75.84;102801.88;4969602;28;20465;-82
2022/01/18 13:23:00;;;;;;;9.25;2.55;;;;;;;7.76;74.95;102792.34;4969829;28;20045;-83
2022/01/18 13:26:04;;;;;;;9.05;2.88;;;;;;;7.60;75.32;102791.53;4969713;28;20101;-82
2022/01/18 13:29:33;;;;;;;4.93;2.35;;;;;;;7.68;75.24;102792.34;4968785;28;20133;-82
2022/01/18 13:32:38;;;;;;;5.45;2.65;;;;;;;7.76;75.87;102779.31;4946330;28;20410;-82
2022/01/18 13:35:41;;;;;;;8.93;2.47;;;;;;;7.78;75.95;102782.75;4952647;28;20034;-82
2022/01/18 13:38:44;;;;;;;;;;;;;;;7.80;76.14;102776.69;4939437;29;20061;-82
2022/01/18 13:41:48;;;;;;;7.28;3.33;;;;;;;7.80;75.33;102775.81;4927010;29;20004;-82
2022/01/18 13:45:19;;;;;;;6.10;2.15;;;;;;;7.84;75.22;102772.31;4927079;29;20085;-82
2022/01/18 13:48:32;;;;;;;5.93;1.98;;;;;;;7.73;72.62;102774.13;4938378;29;20050;-82
2022/01/18 13:51:37;;;;;;;6.97;2.10;;;;;;;7.78;74.08;102765.41;4964735;28;20058;-82
2022/01/18 13:54:53;;;;;;;6.82;2.10;;;;;;;7.82;73.63;102768.88;4968140;28;20046;-82
2022/01/18 13:58:00;;;;;;;5.65;1.98;;;;;;;7.73;72.61;102766.31;4969361;28;20421;-82
2022/01/18 14:01:17;;;;;;;7.07;2.28;;;;;;;7.78;72.13;102759.31;4968267;28;20576;-82
2022/01/18 14:04:23;;;;;;;4.13;1.80;;;;;;;7.75;72.74;102761.94;4945988;29;20110;-82
2022/01/18 14:07:28;;;;;;;4.53;1.75;;;;;;;7.77;73.12;102760.22;4927072;29;20134;-82
2022/01/18 14:10:32;;;;;;;4.15;1.58;;;;;;;7.82;73.27;102750.66;4948691;29;20183;-82
2022/01/18 14:13:37;;;;;;;5.78;2.30;;;;;;;7.80;73.45;102763.66;4949509;28;20098;-82
2022/01/18 14:16:53;;;;;;;4.88;1.55;;;;;;;7.79;72.94;102764.53;4940267;29;20049;-82
2022/01/18 14:20:15;;;;;;;4.95;1.73;;;;;;;7.79;72.78;102768.88;4949556;28;20101;-82
2022/01/18 14:23:20;;;;;;;6.05;1.67;;;;;;;7.84;72.54;102761.91;4941944;29;20147;-82
2022/01/18 14:26:25;;;;;;;5.32;1.70;;;;;;;7.78;72.50;102767.13;4938149;29;20207;-82
2022/01/18 14:29:46;;;;;;;5.15;1.80;;;;;;;7.81;72.61;102757.56;4944640;28;20049;-82
2022/01/18 14:32:51;;;;;;;5.05;1.50;;;;;;;7.82;72.18;102753.25;4946625;28;20133;-83
2022/01/18 14:35:55;;;;;;;7.20;1.60;;;;;;;7.85;71.35;102750.63;4969408;28;20128;-82
2022/01/18 14:39:09;;;;;;;;;;;;;;;7.80;70.76;102749.78;4969343;28;20466;-82
2022/01/18 14:42:12;;;;;;;;;;;;;;;7.87;71.39;102754.06;4946764;28;20049;-82
2022/01/18 14:45:32;;;;;;;3.30;0.85;;;;;;;7.88;70.46;102753.19;4960920;28;19980;-82
2022/01/18 14:48:36;;;;;;;4.85;1.23;;;;;;;7.87;70.95;102751.47;4942492;28;20050;-82
2022/01/18 14:51:42;;;;;;;2.65;1.08;;;;;;;7.80;71.75;102754.97;4968869;28;20085;-83
2022/01/18 14:54:45;;;;;;;5.10;1.30;;;;;;;7.68;72.20;102742.88;4961228;28;20057;-83
2022/01/18 14:57:50;;;;;;;2.65;1.00;;;;;;;7.64;71.38;102748.97;4960098;28;20057;-82
2022/01/18 15:00:56;;;;;;;2.33;0.55;;;;;;;7.68;69.68;102737.66;4972486;28;20458;-83
2022/01/18 15:04:00;;;;;;;3.53;0.80;;;;;;;7.75;69.65;102730.69;4959979;28;20042;-83
2022/01/18 15:07:04;;;;;;;;;;;;;;;7.77;70.20;102732.41;4972033;28;20101;-83
2022/01/18 15:10:09;;;;;;;2.85;0.80;;;;;;;7.75;70.35;102725.47;4961130;28;19921;-82
2022/01/18 15:13:12;;;;;;;2.85;0.55;;;;;;;7.58;71.16;102723.84;4959725;28;20093;-83
2022/01/18 15:16:17;;;;;;;;;;;;;;;7.61;71.43;102722.97;4972573;28;20101;-82
2022/01/18 15:19:23;;;;;;;2.00;0.57;;;;;;;7.61;71.78;102723.81;4960015;28;20009;-82
2022/01/18 15:22:29;;;;;;;1.83;0.32;;;;;;;7.46;71.78;102721.28;4971059;28;20565;-82
2022/01/18 15:25:32;;;;;;;4.68;0.77;;;;;;;7.35;71.32;102728.28;4972001;28;20097;-82
2022/01/18 15:28:36;;;;;;;1.95;0.60;;;;;;;7.31;71.90;102724.81;4623505;28;9999886;-82
2022/01/18 15:31:40;;;;;;;3.28;0.60;;;;;;;7.29;72.82;102720.50;4959839;28;20042;-82
2022/01/18 15:34:47;;;;;;;3.17;1.40;;;;;;;7.18;72.78;102721.41;4949319;28;20049;-82
2022/01/18 15:37:52;;;;;;;4.13;1.85;;;;;;;7.04;73.94;102715.34;4960590;28;20045;-82
2022/01/18 15:40:55;;;;;;;2.60;1.08;;;;;;;6.98;73.14;102711.03;4948209;28;20069;-82
2022/01/18 15:43:58;;;;;;;4.60;1.55;;;;;;;6.99;73.50;102709.31;4959238;28;20060;-82
2022/01/18 15:47:02;;;;;;;1.92;0.60;;;;;;;6.99;74.69;102704.97;4939224;29;20057;-82
2022/01/18 15:50:08;;;;;;;2.28;0.73;;;;;;;6.94;74.99;102709.31;4951361;29;20043;-82
2022/01/18 15:53:12;;;;;;;3.30;0.70;;;;;;;6.85;75.32;102708.47;4938656;29;20106;-82
2022/01/18 15:56:17;;;;;;;3.42;0.60;;;;;;;6.81;74.97;102715.41;4947601;28;20053;-81
2022/01/18 15:59:21;;;;;;;1.90;0.40;;;;;;;6.64;75.45;102707.63;4970242;28;20546;-82
2022/01/18 16:02:26;;;;;;;5.65;0.65;;;;;;;6.63;75.79;102716.28;4970816;28;20406;-82